Terminal Aerodrome Forecast
Issued by NWS Sterling, VA

Home | Current Version | Previous Version | Text Only | Print | Product List | Glossary On
Versions: 1 2 3 4 5 6 7 8 9 10 11 12 13 14 15 16 17 18 19 20 21 22
032
FTUS41 KLWX 082332
TAFBWI
TAF
KBWI 082332Z 0900/1006 11007KT P6SM -RA OVC090
     FM090100 11007KT 5SM -RASN OVC030
     FM090300 11007KT 3SM -SNRA OVC025
     FM090500 10007KT 1SM -SNRA OVC008
     FM090700 09007KT 1/2SM SN OVC008
     FM091800 36006KT 1SM -SN OVC008
     FM092300 31005KT 1 1/2SM -SN OVC008=

USA.gov is the U.S. government's official web portal to all federal, state and local government web resources and services.